sensor_id;sensor_type;location;lat;lon;timestamp;pressure;altitude;pressure_sealevel;temperature;humidity
71805;BME280;59654;52.216;5.616;2022-10-23T00:00:25;101253.59;;;10.87;97.99
71805;BME280;59654;52.216;5.616;2022-10-23T00:00:55;101256.25;;;10.87;97.65
71805;BME280;59654;52.216;5.616;2022-10-23T00:01:29;101249.19;;;10.86;97.12
71805;BME280;59654;52.216;5.616;2022-10-23T00:02:01;101252.75;;;10.85;96.51
71805;BME280;59654;52.216;5.616;2022-10-23T00:02:32;101256.34;;;10.84;96.56
71805;BME280;59654;52.216;5.616;2022-10-23T00:03:03;101248.41;;;10.83;96.53
71805;BME280;59654;52.216;5.616;2022-10-23T00:03:34;101243.97;;;10.82;96.89
71805;BME280;59654;52.216;5.616;2022-10-23T00:04:14;101246.69;;;10.80;96.41
71805;BME280;59654;52.216;5.616;2022-10-23T00:04:50;101241.44;;;10.79;96.22
71805;BME280;59654;52.216;5.616;2022-10-23T00:05:22;101245.91;;;10.78;95.86
71805;BME280;59654;52.216;5.616;2022-10-23T00:05:53;101231.69;;;10.78;95.97
71805;BME280;59654;52.216;5.616;2022-10-23T00:06:24;101238.88;;;10.76;95.69
71805;BME280;59654;52.216;5.616;2022-10-23T00:06:56;101233.59;;;10.74;95.88
71805;BME280;59654;52.216;5.616;2022-10-23T00:07:27;101237.16;;;10.73;96.03
71805;BME280;59654;52.216;5.616;2022-10-23T00:07:59;101239.00;;;10.71;96.27
71805;BME280;59654;52.216;5.616;2022-10-23T00:08:30;101234.59;;;10.70;96.83
71805;BME280;59654;52.216;5.616;2022-10-23T00:09:03;101229.31;;;10.69;96.74
71805;BME280;59654;52.216;5.616;2022-10-23T00:09:35;101232.91;;;10.68;96.80
71805;BME280;59654;52.216;5.616;2022-10-23T00:10:06;101228.47;;;10.66;96.96
71805;BME280;59654;52.216;5.616;2022-10-23T00:10:40;101237.34;;;10.67;97.09
71805;BME280;59654;52.216;5.616;2022-10-23T00:11:15;101233.88;;;10.65;97.43
71805;BME280;59654;52.216;5.616;2022-10-23T00:11:48;101237.44;;;10.64;97.74
71805;BME280;59654;52.216;5.616;2022-10-23T00:12:20;101234.78;;;10.64;98.29
71805;BME280;59654;52.216;5.616;2022-10-23T00:12:52;101229.53;;;10.62;98.35
71805;BME280;59654;52.216;5.616;2022-10-23T00:13:23;101227.75;;;10.63;98.29
71805;BME280;59654;52.216;5.616;2022-10-23T00:13:57;101229.53;;;10.62;98.52
71805;BME280;59654;52.216;5.616;2022-10-23T00:14:29;101226.88;;;10.62;98.47
71805;BME280;59654;52.216;5.616;2022-10-23T00:15:00;101223.38;;;10.60;99.06
71805;BME280;59654;52.216;5.616;2022-10-23T00:15:33;101231.41;;;10.59;98.98
71805;BME280;59654;52.216;5.616;2022-10-23T00:16:05;101226.13;;;10.57;99.12
71805;BME280;59654;52.216;5.616;2022-10-23T00:16:36;101221.75;;;10.55;99.29
71805;BME280;59654;52.216;5.616;2022-10-23T00:17:07;101226.22;;;10.54;98.99
71805;BME280;59654;52.216;5.616;2022-10-23T00:17:40;101233.34;;;10.54;99.36
71805;BME280;59654;52.216;5.616;2022-10-23T00:18:11;101233.34;;;10.54;99.01
71805;BME280;59654;52.216;5.616;2022-10-23T00:18:41;101228.88;;;10.54;99.43
71805;BME280;59654;52.216;5.616;2022-10-23T00:19:12;101228.84;;;10.56;99.07
71805;BME280;59654;52.216;5.616;2022-10-23T00:19:43;101235.09;;;10.55;99.21
71805;BME280;59654;52.216;5.616;2022-10-23T00:20:15;101228.94;;;10.53;99.29
71805;BME280;59654;52.216;5.616;2022-10-23T00:20:46;101227.13;;;10.53;99.33
71805;BME280;59654;52.216;5.616;2022-10-23T00:21:17;101234.25;;;10.53;99.96
71805;BME280;59654;52.216;5.616;2022-10-23T00:21:48;101226.25;;;10.53;99.85
71805;BME280;59654;52.216;5.616;2022-10-23T00:22:19;101229.84;;;10.52;100.00
71805;BME280;59654;52.216;5.616;2022-10-23T00:22:50;101224.59;;;10.49;99.95
71805;BME280;59654;52.216;5.616;2022-10-23T00:23:20;101239.69;;;10.50;99.90
71805;BME280;59654;52.216;5.616;2022-10-23T00:23:51;101229.03;;;10.50;100.00
71805;BME280;59654;52.216;5.616;2022-10-23T00:24:22;101229.91;;;10.50;100.00
71805;BME280;59654;52.216;5.616;2022-10-23T00:24:53;101234.31;;;10.51;100.00
71805;BME280;59654;52.216;5.616;2022-10-23T00:25:23;101230.78;;;10.51;100.00
71805;BME280;59654;52.216;5.616;2022-10-23T00:25:54;101232.53;;;10.52;100.00
71805;BME280;59654;52.216;5.616;2022-10-23T00:26:25;101228.06;;;10.52;99.54
71805;BME280;59654;52.216;5.616;2022-10-23T00:26:56;101230.78;;;10.51;99.88
71805;BME280;59654;52.216;5.616;2022-10-23T00:27:27;101235.19;;;10.52;99.47
71805;BME280;59654;52.216;5.616;2022-10-23T00:27:58;101228.09;;;10.51;99.49
71805;BME280;59654;52.216;5.616;2022-10-23T00:28:29;101231.66;;;10.51;99.77
71805;BME280;59654;52.216;5.616;2022-10-23T00:29:00;101228.00;;;10.54;100.00
71805;BME280;59654;52.216;5.616;2022-10-23T00:29:31;101234.25;;;10.53;99.91
71805;BME280;59654;52.216;5.616;2022-10-23T00:30:03;101238.78;;;10.51;100.00
71805;BME280;59654;52.216;5.616;2022-10-23T00:30:34;101231.66;;;10.51;99.89
71805;BME280;59654;52.216;5.616;2022-10-23T00:31:05;101234.34;;;10.50;99.69
71805;BME280;59654;52.216;5.616;2022-10-23T00:31:37;101237.91;;;10.50;99.77
71805;BME280;59654;52.216;5.616;2022-10-23T00:32:08;101244.16;;;10.49;99.61
71805;BME280;59654;52.216;5.616;2022-10-23T00:32:39;101232.59;;;10.49;99.76
71805;BME280;59654;52.216;5.616;2022-10-23T00:33:09;101237.94;;;10.49;100.00
71805;BME280;59654;52.216;5.616;2022-10-23T00:33:41;101242.41;;;10.48;100.00
71805;BME280;59654;52.216;5.616;2022-10-23T00:34:12;101244.16;;;10.49;100.00
71805;BME280;59654;52.216;5.616;2022-10-23T00:34:44;101239.81;;;10.47;100.00
71805;BME280;59654;52.216;5.616;2022-10-23T00:35:16;101238.06;;;10.46;100.00
71805;BME280;59654;52.216;5.616;2022-10-23T00:35:46;101239.81;;;10.47;100.00
71805;BME280;59654;52.216;5.616;2022-10-23T00:36:19;101241.59;;;10.46;100.00
71805;BME280;59654;52.216;5.616;2022-10-23T00:36:51;101237.16;;;10.47;100.00
71805;BME280;59654;52.216;5.616;2022-10-23T00:37:21;101241.53;;;10.48;100.00
71805;BME280;59654;52.216;5.616;2022-10-23T00:37:52;101238.03;;;10.47;100.00
71805;BME280;59654;52.216;5.616;2022-10-23T00:38:23;101235.34;;;10.47;100.00
71805;BME280;59654;52.216;5.616;2022-10-23T00:38:54;101240.69;;;10.47;100.00
71805;BME280;59654;52.216;5.616;2022-10-23T00:39:26;101238.88;;;10.48;100.00
71805;BME280;59654;52.216;5.616;2022-10-23T00:39:56;101241.53;;;10.48;100.00
71805;BME280;59654;52.216;5.616;2022-10-23T00:40:27;101245.94;;;10.49;99.88
71805;BME280;59654;52.216;5.616;2022-10-23T00:40:58;101249.47;;;10.49;100.00
71805;BME280;59654;52.216;5.616;2022-10-23T00:41:29;101238.81;;;10.49;100.00
71805;BME280;59654;52.216;5.616;2022-10-23T00:42:02;101245.03;;;10.50;100.00
71805;BME280;59654;52.216;5.616;2022-10-23T00:42:32;101249.47;;;10.49;100.00
71805;BME280;59654;52.216;5.616;2022-10-23T00:43:04;101238.88;;;10.48;100.00
71805;BME280;59654;52.216;5.616;2022-10-23T00:45:29;101234.56;;;10.44;100.00
71805;BME280;59654;52.216;5.616;2022-10-23T00:46:03;101230.16;;;10.43;100.00
71805;BME280;59654;52.216;5.616;2022-10-23T00:46:36;101232.81;;;10.43;100.00
71805;BME280;59654;52.216;5.616;2022-10-23T00:47:09;101231.06;;;10.42;99.67
71805;BME280;59654;52.216;5.616;2022-10-23T00:47:40;101228.41;;;10.42;99.59
71805;BME280;59654;52.216;5.616;2022-10-23T00:48:12;101232.81;;;10.43;100.00
71805;BME280;59654;52.216;5.616;2022-10-23T00:48:43;101237.28;;;10.42;99.98
71805;BME280;59654;52.216;5.616;2022-10-23T00:49:15;101236.41;;;10.42;99.89
71805;BME280;59654;52.216;5.616;2022-10-23T00:49:46;101232.81;;;10.43;100.00
71805;BME280;59654;52.216;5.616;2022-10-23T00:50:18;101230.13;;;10.44;99.46
71805;BME280;59654;52.216;5.616;2022-10-23T00:50:51;101228.38;;;10.43;100.00
71805;BME280;59654;52.216;5.616;2022-10-23T00:51:25;101231.91;;;10.44;99.52
71805;BME280;59654;52.216;5.616;2022-10-23T00:52:01;101231.91;;;10.44;99.73
71805;BME280;59654;52.216;5.616;2022-10-23T00:52:41;101232.81;;;10.43;100.00
71805;BME280;59654;52.216;5.616;2022-10-23T00:53:18;101228.38;;;10.43;100.00
71805;BME280;59654;52.216;5.616;2022-10-23T00:53:54;101219.50;;;10.43;99.67
71805;BME280;59654;52.216;5.616;2022-10-23T00:54:33;101227.44;;;10.44;100.00
71805;BME280;59654;52.216;5.616;2022-10-23T00:55:06;101226.63;;;10.42;100.00
71805;BME280;59654;52.216;5.616;2022-10-23T00:55:39;101222.16;;;10.43;100.00
71805;BME280;59654;52.216;5.616;2022-10-23T00:56:15;101224.81;;;10.43;99.11
71805;BME280;59654;52.216;5.616;2022-10-23T00:56:46;101215.94;;;10.42;99.62
71805;BME280;59654;52.216;5.616;2022-10-23T00:57:17;101223.06;;;10.42;98.54
71805;BME280;59654;52.216;5.616;2022-10-23T00:57:49;101231.06;;;10.42;99.00
71805;BME280;59654;52.216;5.616;2022-10-23T00:58:20;101226.66;;;10.41;98.19
71805;BME280;59654;52.216;5.616;2022-10-23T00:58:51;101223.06;;;10.42;98.59
71805;BME280;59654;52.216;5.616;2022-10-23T00:59:23;101218.66;;;10.41;98.72
71805;BME280;59654;52.216;5.616;2022-10-23T00:59:54;101227.59;;;10.40;98.81
71805;BME280;59654;52.216;5.616;2022-10-23T01:00:39;101222.28;;;10.38;98.51
71805;BME280;59654;52.216;5.616;2022-10-23T01:01:20;101224.09;;;10.38;98.80
71805;BME280;59654;52.216;5.616;2022-10-23T01:01:53;101217.88;;;10.37;98.42
71805;BME280;59654;52.216;5.616;2022-10-23T01:02:24;101221.47;;;10.36;99.11
71805;BME280;59654;52.216;5.616;2022-10-23T01:02:56;101222.38;;;10.35;98.90
71805;BME280;59654;52.216;5.616;2022-10-23T01:03:28;101211.78;;;10.34;98.80
71805;BME280;59654;52.216;5.616;2022-10-23T01:04:00;101214.38;;;10.35;99.38
71805;BME280;59654;52.216;5.616;2022-10-23T01:04:33;101213.56;;;10.33;99.53
71805;BME280;59654;52.216;5.616;2022-10-23T01:05:04;101215.31;;;10.34;99.44
71805;BME280;59654;52.216;5.616;2022-10-23T01:05:48;101217.94;;;10.36;99.61
71805;BME280;59654;52.216;5.616;2022-10-23T01:07:52;101212.59;;;10.36;100.00
71805;BME280;59654;52.216;5.616;2022-10-23T01:08:36;101218.75;;;10.38;100.00
71805;BME280;59654;52.216;5.616;2022-10-23T01:09:46;101219.63;;;10.38;100.00
71805;BME280;59654;52.216;5.616;2022-10-23T01:10:46;101219.59;;;10.40;100.00
71805;BME280;59654;52.216;5.616;2022-10-23T01:11:29;101211.59;;;10.40;100.00
71805;BME280;59654;52.216;5.616;2022-10-23T01:12:55;101220.47;;;10.40;100.00
71805;BME280;59654;52.216;5.616;2022-10-23T01:14:45;101216.09;;;10.38;100.00
71805;BME280;59654;52.216;5.616;2022-10-23T01:16:45;101216.09;;;10.38;99.71
71805;BME280;59654;52.216;5.616;2022-10-23T01:21:28;101221.56;;;10.33;99.94
71805;BME280;59654;52.216;5.616;2022-10-23T01:22:08;101209.97;;;10.34;100.00
71805;BME280;59654;52.216;5.616;2022-10-23T01:24:05;101218.03;;;10.32;100.00
71805;BME280;59654;52.216;5.616;2022-10-23T01:25:33;101218.94;;;10.31;100.00
71805;BME280;59654;52.216;5.616;2022-10-23T01:26:34;101215.34;;;10.32;100.00
71805;BME280;59654;52.216;5.616;2022-10-23T01:27:19;101222.56;;;10.30;100.00
71805;BME280;59654;52.216;5.616;2022-10-23T01:28:02;101217.16;;;10.32;100.00
71805;BME280;59654;52.216;5.616;2022-10-23T01:28:49;101224.25;;;10.31;100.00
71805;BME280;59654;52.216;5.616;2022-10-23T01:29:35;101212.81;;;10.29;100.00
71805;BME280;59654;52.216;5.616;2022-10-23T01:30:14;101213.69;;;10.30;100.00
71805;BME280;59654;52.216;5.616;2022-10-23T01:30:48;101214.59;;;10.29;100.00
71805;BME280;59654;52.216;5.616;2022-10-23T01:31:32;101211.06;;;10.28;100.00
71805;BME280;59654;52.216;5.616;2022-10-23T01:32:55;101207.47;;;10.29;100.00
71805;BME280;59654;52.216;5.616;2022-10-23T01:33:40;101204.78;;;10.31;100.00
71805;BME280;59654;52.216;5.616;2022-10-23T01:34:21;101205.72;;;10.28;100.00
71805;BME280;59654;52.216;5.616;2022-10-23T01:35:05;101203.97;;;10.27;100.00
71805;BME280;59654;52.216;5.616;2022-10-23T01:35:49;101205.81;;;10.25;100.00
71805;BME280;59654;52.216;5.616;2022-10-23T01:36:27;101197.78;;;10.27;100.00
71805;BME280;59654;52.216;5.616;2022-10-23T01:37:05;101203.94;;;10.29;100.00
71805;BME280;59654;52.216;5.616;2022-10-23T01:39:02;101203.91;;;10.30;100.00
71805;BME280;59654;52.216;5.616;2022-10-23T01:39:44;101203.91;;;10.30;100.00
71805;BME280;59654;52.216;5.616;2022-10-23T01:40:28;101208.28;;;10.31;100.00
71805;BME280;59654;52.216;5.616;2022-10-23T01:41:10;101216.34;;;10.30;100.00
71805;BME280;59654;52.216;5.616;2022-10-23T01:41:52;101209.22;;;10.30;100.00
71805;BME280;59654;52.216;5.616;2022-10-23T01:42:38;101205.72;;;10.28;100.00
71805;BME280;59654;52.216;5.616;2022-10-23T01:43:19;101211.09;;;10.27;100.00
71805;BME280;59654;52.216;5.616;2022-10-23T01:44:24;101203.13;;;10.27;100.00
71805;BME280;59654;52.216;5.616;2022-10-23T01:45:07;101204.91;;;10.26;100.00
71805;BME280;59654;52.216;5.616;2022-10-23T01:45:52;101202.28;;;10.25;100.00
71805;BME280;59654;52.216;5.616;2022-10-23T01:46:29;101198.69;;;10.26;100.00
71805;BME280;59654;52.216;5.616;2022-10-23T01:47:04;101195.16;;;10.25;100.00
71805;BME280;59654;52.216;5.616;2022-10-23T01:47:41;101198.69;;;10.26;100.00
71805;BME280;59654;52.216;5.616;2022-10-23T01:48:22;101197.81;;;10.25;100.00
71805;BME280;59654;52.216;5.616;2022-10-23T01:48:58;101201.31;;;10.27;100.00
71805;BME280;59654;52.216;5.616;2022-10-23T01:49:32;101202.19;;;10.28;100.00
71805;BME280;59654;52.216;5.616;2022-10-23T01:50:05;101197.78;;;10.27;100.00
71805;BME280;59654;52.216;5.616;2022-10-23T01:50:40;101195.16;;;10.25;100.00
71805;BME280;59654;52.216;5.616;2022-10-23T01:51:14;101196.94;;;10.25;100.00
71805;BME280;59654;52.216;5.616;2022-10-23T01:51:53;101193.41;;;10.24;100.00
71805;BME280;59654;52.216;5.616;2022-10-23T01:52:24;101196.94;;;10.25;100.00
71805;BME280;59654;52.216;5.616;2022-10-23T01:52:57;101186.25;;;10.26;100.00
71805;BME280;59654;52.216;5.616;2022-10-23T01:53:32;101181.78;;;10.27;100.00
71805;BME280;59654;52.216;5.616;2022-10-23T01:54:08;101189.78;;;10.27;100.00
71805;BME280;59654;52.216;5.616;2022-10-23T01:54:44;101192.50;;;10.25;100.00
71805;BME280;59654;52.216;5.616;2022-10-23T01:55:17;101196.00;;;10.27;100.00
71805;BME280;59654;52.216;5.616;2022-10-23T01:55:49;101188.91;;;10.26;100.00
71805;BME280;59654;52.216;5.616;2022-10-23T01:56:33;101197.75;;;10.28;100.00
71805;BME280;59654;52.216;5.616;2022-10-23T01:57:09;101185.28;;;10.29;100.00
71805;BME280;59654;52.216;5.616;2022-10-23T01:57:44;101185.34;;;10.27;100.00
71805;BME280;59654;52.216;5.616;2022-10-23T01:58:19;101186.25;;;10.26;100.00
71805;BME280;59654;52.216;5.616;2022-10-23T01:58:54;101188.00;;;10.27;100.00
71805;BME280;59654;52.216;5.616;2022-10-23T01:59:36;101186.28;;;10.25;100.00
71805;BME280;59654;52.216;5.616;2022-10-23T02:00:14;101186.25;;;10.26;100.00
71805;BME280;59654;52.216;5.616;2022-10-23T02:01:00;101190.66;;;10.27;100.00
71805;BME280;59654;52.216;5.616;2022-10-23T02:01:35;101185.34;;;10.27;100.00
71805;BME280;59654;52.216;5.616;2022-10-23T02:02:13;101188.91;;;10.26;100.00
71805;BME280;59654;52.216;5.616;2022-10-23T02:02:50;101180.03;;;10.26;100.00
71805;BME280;59654;52.216;5.616;2022-10-23T02:03:25;101180.00;;;10.27;100.00
71805;BME280;59654;52.216;5.616;2022-10-23T02:04:02;101179.09;;;10.28;100.00
71805;BME280;59654;52.216;5.616;2022-10-23T02:04:56;101177.28;;;10.29;100.00
71805;BME280;59654;52.216;5.616;2022-10-23T02:05:30;101178.97;;;10.31;100.00
71805;BME280;59654;52.216;5.616;2022-10-23T02:06:02;101176.41;;;10.28;100.00
71805;BME280;59654;52.216;5.616;2022-10-23T02:06:33;101171.97;;;10.29;100.00
71805;BME280;59654;52.216;5.616;2022-10-23T02:07:04;101170.16;;;10.29;100.00
71805;BME280;59654;52.216;5.616;2022-10-23T02:07:35;101170.22;;;10.28;100.00
71805;BME280;59654;52.216;5.616;2022-10-23T02:08:07;101172.94;;;10.26;100.00
71805;BME280;59654;52.216;5.616;2022-10-23T02:08:38;101173.78;;;10.27;100.00
71805;BME280;59654;52.216;5.616;2022-10-23T02:09:09;101170.25;;;10.26;100.00
71805;BME280;59654;52.216;5.616;2022-10-23T02:09:41;101169.34;;;10.27;100.00
71805;BME280;59654;52.216;5.616;2022-10-23T02:10:13;101169.34;;;10.27;100.00
71805;BME280;59654;52.216;5.616;2022-10-23T02:11:30;101167.53;;;10.28;100.00
71805;BME280;59654;52.216;5.616;2022-10-23T02:12:07;101171.09;;;10.28;100.00
71805;BME280;59654;52.216;5.616;2022-10-23T02:13:06;101171.09;;;10.28;100.00
71805;BME280;59654;52.216;5.616;2022-10-23T02:15:36;101158.69;;;10.27;100.00
71805;BME280;59654;52.216;5.616;2022-10-23T02:19:49;101163.13;;;10.27;100.00
71805;BME280;59654;52.216;5.616;2022-10-23T02:20:37;101154.22;;;10.28;100.00
71805;BME280;59654;52.216;5.616;2022-10-23T02:21:17;101148.97;;;10.25;100.00
71805;BME280;59654;52.216;5.616;2022-10-23T02:23:03;101153.44;;;10.24;100.00
71805;BME280;59654;52.216;5.616;2022-10-23T02:24:04;101143.69;;;10.23;100.00
71805;BME280;59654;52.216;5.616;2022-10-23T02:25:03;101149.91;;;10.24;100.00
71805;BME280;59654;52.216;5.616;2022-10-23T02:26:17;101143.69;;;10.23;100.00
71805;BME280;59654;52.216;5.616;2022-10-23T02:26:59;101148.13;;;10.24;100.00
71805;BME280;59654;52.216;5.616;2022-10-23T02:27:54;101147.19;;;10.25;100.00
71805;BME280;59654;52.216;5.616;2022-10-23T02:28:42;101144.56;;;10.24;99.83
71805;BME280;59654;52.216;5.616;2022-10-23T02:29:42;101146.28;;;10.26;100.00
71805;BME280;59654;52.216;5.616;2022-10-23T02:30:18;101151.66;;;10.25;100.00
71805;BME280;59654;52.216;5.616;2022-10-23T02:30:58;101148.13;;;10.24;100.00
71805;BME280;59654;52.216;5.616;2022-10-23T02:31:30;101144.63;;;10.22;99.79
71805;BME280;59654;52.216;5.616;2022-10-23T02:32:01;101151.78;;;10.20;99.78
71805;BME280;59654;52.216;5.616;2022-10-23T02:32:34;101152.66;;;10.21;99.74
71805;BME280;59654;52.216;5.616;2022-10-23T02:33:08;101148.34;;;10.17;100.00
71805;BME280;59654;52.216;5.616;2022-10-23T02:33:43;101149.22;;;10.17;100.00
71805;BME280;59654;52.216;5.616;2022-10-23T02:34:15;101149.25;;;10.16;100.00
71805;BME280;59654;52.216;5.616;2022-10-23T02:34:47;101149.25;;;10.16;100.00
71805;BME280;59654;52.216;5.616;2022-10-23T02:35:20;101148.38;;;10.15;100.00
71805;BME280;59654;52.216;5.616;2022-10-23T02:35:57;101149.25;;;10.16;100.00
71805;BME280;59654;52.216;5.616;2022-10-23T02:36:28;101145.75;;;10.14;100.00
71805;BME280;59654;52.216;5.616;2022-10-23T02:36:59;101140.38;;;10.15;99.76
71805;BME280;59654;52.216;5.616;2022-10-23T02:37:29;101146.63;;;10.14;99.98
71805;BME280;59654;52.216;5.616;2022-10-23T02:38:01;101145.75;;;10.14;100.00
71805;BME280;59654;52.216;5.616;2022-10-23T02:38:40;101133.41;;;10.11;100.00
71805;BME280;59654;52.216;5.616;2022-10-23T02:39:12;101144.97;;;10.10;100.00
71805;BME280;59654;52.216;5.616;2022-10-23T02:39:43;101139.66;;;10.10;100.00
71805;BME280;59654;52.216;5.616;2022-10-23T02:40:14;101129.91;;;10.09;100.00
71805;BME280;59654;52.216;5.616;2022-10-23T02:40:49;101123.75;;;10.07;100.00
71805;BME280;59654;52.216;5.616;2022-10-23T02:43:09;101127.25;;;10.09;100.00
71805;BME280;59654;52.216;5.616;2022-10-23T02:46:37;101125.41;;;10.11;100.00
71805;BME280;59654;52.216;5.616;2022-10-23T02:48:28;101121.91;;;10.09;100.00
71805;BME280;59654;52.216;5.616;2022-10-23T02:49:37;101108.59;;;10.09;100.00
71805;BME280;59654;52.216;5.616;2022-10-23T02:51:11;101121.91;;;10.09;100.00
71805;BME280;59654;52.216;5.616;2022-10-23T02:53:00;101124.69;;;10.06;99.32
71805;BME280;59654;52.216;5.616;2022-10-23T02:54:58;101123.94;;;10.01;100.00
71805;BME280;59654;52.216;5.616;2022-10-23T02:56:01;101124.00;;;10.00;100.00
71805;BME280;59654;52.216;5.616;2022-10-23T02:56:58;101127.66;;;9.97;100.00
71805;BME280;59654;52.216;5.616;2022-10-23T02:59:06;101120.56;;;9.96;100.00
71805;BME280;59654;52.216;5.616;2022-10-23T02:59:51;101123.25;;;9.96;100.00
71805;BME280;59654;52.216;5.616;2022-10-23T03:00:30;101115.34;;;9.93;100.00
71805;BME280;59654;52.216;5.616;2022-10-23T03:01:11;101117.09;;;9.94;100.00
71805;BME280;59654;52.216;5.616;2022-10-23T03:01:55;101121.59;;;9.92;100.00
71805;BME280;59654;52.216;5.616;2022-10-23T03:02:45;101120.66;;;9.93;100.00
71805;BME280;59654;52.216;5.616;2022-10-23T03:03:32;101115.38;;;9.91;100.00
71805;BME280;59654;52.216;5.616;2022-10-23T03:04:09;101110.97;;;9.90;100.00
71805;BME280;59654;52.216;5.616;2022-10-23T03:04:43;101115.34;;;9.93;100.00
71805;BME280;59654;52.216;5.616;2022-10-23T03:05:21;101118.03;;;9.91;100.00
71805;BME280;59654;52.216;5.616;2022-10-23T03:05:55;101110.97;;;9.90;100.00
71805;BME280;59654;52.216;5.616;2022-10-23T03:06:26;101108.34;;;9.89;100.00
71805;BME280;59654;52.216;5.616;2022-10-23T03:06:57;101118.09;;;9.90;100.00
71805;BME280;59654;52.216;5.616;2022-10-23T03:07:28;101112.75;;;9.90;100.00
71805;BME280;59654;52.216;5.616;2022-10-23T03:08:08;101119.84;;;9.91;100.00
71805;BME280;59654;52.216;5.616;2022-10-23T03:08:48;101109.28;;;9.88;100.00
71805;BME280;59654;52.216;5.616;2022-10-23T03:09:25;101117.22;;;9.89;100.00
71805;BME280;59654;52.216;5.616;2022-10-23T03:09:56;101116.34;;;9.89;100.00
71805;BME280;59654;52.216;5.616;2022-10-23T03:10:27;101117.25;;;9.88;100.00
71805;BME280;59654;52.216;5.616;2022-10-23T03:10:57;101111.94;;;9.88;100.00
71805;BME280;59654;52.216;5.616;2022-10-23T03:11:31;101117.25;;;9.88;100.00
71805;BME280;59654;52.216;5.616;2022-10-23T03:12:01;101117.22;;;9.89;100.00
71805;BME280;59654;52.216;5.616;2022-10-23T03:12:36;101116.34;;;9.89;100.00
71805;BME280;59654;52.216;5.616;2022-10-23T03:13:09;101116.38;;;9.87;100.00
71805;BME280;59654;52.216;5.616;2022-10-23T03:13:46;101119.97;;;9.86;100.00
71805;BME280;59654;52.216;5.616;2022-10-23T03:14:16;101120.88;;;9.85;100.00
71805;BME280;59654;52.216;5.616;2022-10-23T03:14:48;101120.78;;;9.88;100.00
71805;BME280;59654;52.216;5.616;2022-10-23T03:15:19;101119.00;;;9.89;100.00
71805;BME280;59654;52.216;5.616;2022-10-23T03:15:52;101116.34;;;9.89;100.00
71805;BME280;59654;52.216;5.616;2022-10-23T03:16:23;101119.06;;;9.87;100.00
71805;BME280;59654;52.216;5.616;2022-10-23T03:16:56;101111.00;;;9.89;100.00
71805;BME280;59654;52.216;5.616;2022-10-23T03:17:28;101119.88;;;9.89;100.00
71805;BME280;59654;52.216;5.616;2022-10-23T03:18:02;101119.00;;;9.89;100.00
71805;BME280;59654;52.216;5.616;2022-10-23T03:18:33;101111.00;;;9.89;100.00
71805;BME280;59654;52.216;5.616;2022-10-23T03:19:05;101114.59;;;9.88;100.00
71805;BME280;59654;52.216;5.616;2022-10-23T03:19:36;101114.59;;;9.88;100.00
71805;BME280;59654;52.216;5.616;2022-10-23T03:20:08;101105.69;;;9.89;100.00
71805;BME280;59654;52.216;5.616;2022-10-23T03:20:39;101113.69;;;9.89;100.00
71805;BME280;59654;52.216;5.616;2022-10-23T03:21:10;101111.84;;;9.91;100.00
71805;BME280;59654;52.216;5.616;2022-10-23T03:21:41;101110.00;;;9.93;100.00
71805;BME280;59654;52.216;5.616;2022-10-23T03:22:12;101106.44;;;9.94;100.00
71805;BME280;59654;52.216;5.616;2022-10-23T03:22:43;101104.69;;;9.93;100.00
71805;BME280;59654;52.216;5.616;2022-10-23T03:23:13;101104.63;;;9.94;100.00
71805;BME280;59654;52.216;5.616;2022-10-23T03:23:44;101106.38;;;9.95;100.00
71805;BME280;59654;52.216;5.616;2022-10-23T03:24:20;101103.72;;;9.95;99.94
71805;BME280;59654;52.216;5.616;2022-10-23T03:24:51;101105.56;;;9.93;99.80
71805;BME280;59654;52.216;5.616;2022-10-23T03:25:22;101109.03;;;9.95;99.33
71805;BME280;59654;52.216;5.616;2022-10-23T03:25:53;101109.03;;;9.95;99.40
71805;BME280;59654;52.216;5.616;2022-10-23T03:26:42;101101.09;;;9.94;98.96
71805;BME280;59654;52.216;5.616;2022-10-23T03:27:13;101102.88;;;9.93;99.00
71805;BME280;59654;52.216;5.616;2022-10-23T03:27:45;101105.56;;;9.93;98.56
71805;BME280;59654;52.216;5.616;2022-10-23T03:28:19;101094.06;;;9.91;98.94
71805;BME280;59654;52.216;5.616;2022-10-23T03:28:49;101102.94;;;9.92;98.46
71805;BME280;59654;52.216;5.616;2022-10-23T03:29:23;101102.97;;;9.90;98.91
71805;BME280;59654;52.216;5.616;2022-10-23T03:29:53;101100.41;;;9.87;99.40
71805;BME280;59654;52.216;5.616;2022-10-23T03:30:24;101103.94;;;9.88;100.00
71805;BME280;59654;52.216;5.616;2022-10-23T03:30:58;101107.47;;;9.88;100.00
71805;BME280;59654;52.216;5.616;2022-10-23T03:31:31;101100.41;;;9.87;100.00
71805;BME280;59654;52.216;5.616;2022-10-23T03:32:03;101090.72;;;9.85;100.00
71805;BME280;59654;52.216;5.616;2022-10-23T03:32:34;101102.25;;;9.85;100.00
71805;BME280;59654;52.216;5.616;2022-10-23T03:33:05;101091.53;;;9.87;100.00
71805;BME280;59654;52.216;5.616;2022-10-23T03:33:38;101096.00;;;9.86;100.00
71805;BME280;59654;52.216;5.616;2022-10-23T03:34:12;101094.25;;;9.85;100.00
71805;BME280;59654;52.216;5.616;2022-10-23T03:34:44;101088.88;;;9.87;100.00
71805;BME280;59654;52.216;5.616;2022-10-23T03:35:15;101094.25;;;9.85;100.00
71805;BME280;59654;52.216;5.616;2022-10-23T03:35:49;101094.22;;;9.87;100.00
71805;BME280;59654;52.216;5.616;2022-10-23T03:36:20;101092.38;;;9.89;100.00
71805;BME280;59654;52.216;5.616;2022-10-23T03:36:51;101097.66;;;9.90;100.00
71805;BME280;59654;52.216;5.616;2022-10-23T03:37:23;101095.88;;;9.91;100.00
71805;BME280;59654;52.216;5.616;2022-10-23T03:37:54;101094.03;;;9.93;100.00
71805;BME280;59654;52.216;5.616;2022-10-23T03:38:28;101102.00;;;9.93;100.00